createdAt,value
2018-10-05T00:02:24.334Z,76.43
2018-10-05T00:05:29.846Z,76.31
2018-10-05T00:08:35.627Z,76.90
2018-10-05T00:11:41.451Z,76.41
2018-10-05T00:14:46.983Z,76.71
2018-10-05T00:17:52.436Z,75.73
2018-10-05T00:20:57.847Z,76.42
2018-10-05T00:24:03.575Z,76.38
2018-10-05T00:27:08.981Z,76.08
2018-10-05T00:30:14.407Z,75.26
2018-10-05T00:33:19.937Z,75.61
2018-10-05T00:36:25.355Z,75.89
2018-10-05T00:39:30.786Z,75.83
2018-10-05T00:42:36.250Z,75.69
2018-10-05T00:45:41.929Z,75.95
2018-10-05T00:48:47.472Z,76.41
2018-10-05T00:51:52.894Z,75.47
2018-10-05T00:54:58.395Z,75.03
2018-10-05T00:58:03.828Z,75.75
2018-10-05T01:01:09.403Z,75.38
2018-10-05T01:04:14.939Z,75.79
2018-10-05T01:07:20.330Z,75.37
2018-10-05T01:10:25.775Z,75.53
2018-10-05T01:13:31.388Z,75.83
2018-10-05T01:16:36.816Z,75.58
2018-10-05T01:19:42.370Z,75.68
2018-10-05T01:22:47.793Z,76.16
2018-10-05T01:25:53.272Z,76.32
2018-10-05T01:28:58.667Z,76.10
2018-10-05T01:32:04.154Z,76.76
2018-10-05T01:35:09.963Z,75.85
2018-10-05T01:38:15.347Z,77.16
2018-10-05T01:41:20.746Z,76.58
2018-10-05T01:44:26.150Z,76.77
2018-10-05T01:47:31.551Z,77.06
2018-10-05T01:50:36.966Z,76.54
2018-10-05T01:53:42.383Z,76.50
2018-10-05T01:56:48.575Z,77.59
2018-10-05T01:59:54.000Z,76.59
2018-10-05T02:02:59.378Z,76.56
2018-10-05T02:06:04.878Z,77.17
2018-10-05T02:09:10.258Z,76.51
2018-10-05T02:12:15.735Z,77.12
2018-10-05T02:15:21.364Z,77.14
2018-10-05T02:18:26.743Z,76.87
2018-10-05T02:21:32.162Z,77.49
2018-10-05T02:24:37.579Z,77.48
2018-10-05T02:27:43.026Z,77.79
2018-10-05T02:30:48.427Z,77.79
2018-10-05T02:33:53.934Z,77.36
2018-10-05T02:36:59.370Z,77.33
2018-10-05T02:40:05.024Z,77.30
2018-10-05T02:43:10.504Z,76.77
2018-10-05T02:46:15.914Z,77.12
2018-10-05T02:49:21.308Z,77.22
2018-10-05T02:52:26.723Z,77.11
2018-10-05T02:55:32.216Z,77.58
2018-10-05T02:58:37.630Z,77.40
2018-10-05T03:02:00.059Z,77.32
2018-10-05T03:05:05.535Z,77.79
2018-10-05T03:08:10.935Z,77.92
2018-10-05T03:11:27.782Z,78.09
2018-10-05T03:14:33.444Z,78.31
2018-10-05T03:17:38.864Z,78.01
2018-10-05T03:20:44.266Z,77.87
2018-10-05T03:23:49.767Z,78.22
2018-10-05T03:26:55.331Z,78.28
2018-10-05T03:30:00.752Z,78.01
2018-10-05T03:33:06.263Z,78.38
2018-10-05T03:36:11.664Z,77.93
2018-10-05T03:39:17.071Z,77.86
2018-10-05T03:42:22.500Z,78.46
2018-10-05T03:45:27.919Z,78.02
2018-10-05T03:48:33.328Z,77.43
2018-10-05T03:51:38.806Z,77.33
2018-10-05T03:54:44.282Z,77.30
2018-10-05T03:57:49.691Z,77.19
2018-10-05T04:00:55.071Z,77.75
2018-10-05T04:04:00.579Z,77.16
2018-10-05T04:07:06.500Z,77.14
2018-10-05T04:10:11.900Z,77.35
2018-10-05T04:13:17.401Z,77.26
2018-10-05T04:16:22.815Z,77.73
2018-10-05T04:19:28.227Z,76.93
2018-10-05T04:22:33.635Z,77.19
2018-10-05T04:25:39.139Z,77.21
2018-10-05T04:28:44.548Z,77.15
2018-10-05T04:31:49.931Z,77.73
2018-10-05T04:34:55.431Z,78.33
2018-10-05T04:38:00.842Z,77.79
2018-10-05T04:41:09.491Z,77.21
2018-10-05T04:44:14.963Z,78.48
2018-10-05T04:47:20.424Z,78.56
2018-10-05T04:50:25.811Z,78.47
2018-10-05T04:53:31.309Z,78.81
2018-10-05T04:56:36.706Z,78.33
2018-10-05T04:59:42.175Z,78.13
2018-10-05T05:02:47.599Z,78.44
2018-10-05T05:05:55.067Z,77.92
2018-10-05T05:09:00.466Z,78.01
2018-10-05T05:12:06.314Z,77.14
2018-10-05T05:15:11.932Z,77.88
2018-10-05T05:18:17.359Z,77.35
2018-10-05T05:21:22.738Z,77.59
2018-10-05T05:24:28.249Z,76.79
2018-10-05T05:27:33.681Z,76.86
2018-10-05T05:30:39.063Z,77.81
2018-10-05T05:33:44.745Z,77.52
2018-10-05T05:36:50.431Z,76.71
2018-10-05T05:39:55.858Z,77.24
2018-10-05T05:43:02.260Z,77.94
2018-10-05T05:46:08.234Z,76.79
2018-10-05T05:49:14.291Z,77.57
2018-10-05T05:52:19.791Z,77.06
2018-10-05T05:55:25.338Z,77.52
2018-10-05T05:58:30.808Z,78.90
2018-10-05T06:01:36.227Z,78.70
2018-10-05T06:04:41.764Z,78.31
2018-10-05T06:07:47.175Z,78.02
2018-10-05T06:10:53.214Z,77.58
2018-10-05T06:13:58.784Z,78.23
2018-10-05T06:17:04.197Z,77.17
2018-10-05T06:20:09.650Z,77.09
2018-10-05T06:23:17.379Z,77.54
2018-10-05T06:26:22.786Z,77.24
2018-10-05T06:29:28.218Z,76.66
2018-10-05T06:32:33.618Z,75.97
2018-10-05T06:35:39.100Z,75.77
2018-10-05T06:38:44.503Z,76.80
2018-10-05T06:41:49.957Z,75.82
2018-10-05T06:44:55.483Z,76.00
2018-10-05T06:48:00.927Z,75.95
2018-10-05T06:51:07.036Z,75.84
2018-10-05T06:54:12.530Z,76.12
2018-10-05T06:57:18.242Z,77.22
2018-10-05T07:00:23.729Z,77.35
2018-10-05T07:03:29.282Z,77.15
2018-10-05T07:06:34.873Z,77.92
2018-10-05T07:09:40.304Z,77.91
2018-10-05T07:12:45.698Z,77.54
2018-10-05T07:15:51.231Z,77.76
2018-10-05T07:18:56.840Z,77.49
2018-10-05T07:22:02.251Z,77.15
2018-10-05T07:25:07.744Z,77.36
2018-10-05T07:28:13.258Z,76.38
2018-10-05T07:31:18.874Z,75.13
2018-10-05T07:34:24.388Z,75.40
2018-10-05T07:37:29.987Z,74.78
2018-10-05T07:40:35.594Z,74.24
2018-10-05T07:43:41.120Z,75.09
2018-10-05T07:46:46.631Z,74.51
2018-10-05T07:49:52.081Z,74.59
2018-10-05T07:52:57.481Z,74.42
2018-10-05T07:56:02.973Z,75.25
2018-10-05T07:59:08.417Z,75.27
2018-10-05T08:02:13.842Z,75.50
2018-10-05T08:05:19.274Z,74.27
2018-10-05T08:08:24.699Z,74.45
2018-10-05T08:11:30.111Z,74.44
2018-10-05T08:14:35.556Z,73.35
2018-10-05T08:17:41.015Z,73.38
2018-10-05T08:20:46.440Z,72.17
2018-10-05T08:23:53.959Z,71.18
2018-10-05T08:26:59.624Z,69.21
2018-10-05T08:30:06.095Z,66.66
2018-10-05T08:33:11.551Z,63.98
2018-10-05T08:36:17.014Z,62.04
2018-10-05T08:39:22.382Z,62.00
2018-10-05T08:42:27.835Z,62.94
2018-10-05T08:45:33.315Z,63.77
2018-10-05T08:48:38.884Z,62.92
2018-10-05T08:51:44.359Z,62.65
2018-10-05T08:54:49.981Z,64.49
2018-10-05T08:57:55.372Z,63.41
2018-10-05T09:01:00.826Z,63.13
2018-10-05T09:04:06.256Z,63.16
2018-10-05T09:07:11.662Z,62.61
2018-10-05T09:10:17.062Z,62.38
2018-10-05T09:13:23.192Z,63.04
2018-10-05T09:16:28.737Z,62.18
2018-10-05T09:19:34.148Z,61.24
2018-10-05T09:22:39.714Z,61.30
2018-10-05T09:25:45.733Z,61.45
2018-10-05T09:28:51.127Z,61.29
2018-10-05T09:31:56.527Z,59.60
2018-10-05T09:35:01.942Z,60.53
2018-10-05T09:38:07.396Z,60.27
2018-10-05T09:41:12.798Z,60.64
2018-10-05T09:44:18.208Z,62.69
2018-10-05T09:47:23.736Z,62.51
2018-10-05T09:50:29.342Z,62.67
2018-10-05T09:53:34.767Z,62.40
2018-10-05T09:56:40.288Z,62.58
2018-10-05T09:59:45.812Z,62.79
2018-10-05T10:02:57.150Z,61.93
2018-10-05T10:06:02.923Z,60.91
2018-10-05T10:09:09.675Z,61.09
2018-10-05T10:12:15.115Z,61.11
2018-10-05T10:15:20.839Z,60.56
2018-10-05T10:18:26.920Z,60.40
2018-10-05T10:21:32.813Z,60.92
2018-10-05T10:24:38.415Z,60.89
2018-10-05T10:27:44.247Z,60.56
2018-10-05T10:30:49.826Z,59.27
2018-10-05T10:33:55.251Z,59.13
2018-10-05T10:37:00.800Z,59.71
2018-10-05T10:40:06.278Z,58.14
2018-10-05T10:43:11.875Z,58.92
2018-10-05T10:46:17.623Z,57.21
2018-10-05T10:49:23.028Z,57.19
2018-10-05T10:52:28.555Z,56.40
2018-10-05T10:55:34.071Z,55.55
2018-10-05T10:58:39.479Z,54.68
2018-10-05T11:01:44.875Z,55.30
2018-10-05T11:04:50.682Z,55.43
2018-10-05T11:07:56.111Z,55.78
2018-10-05T11:11:01.588Z,55.12
2018-10-05T11:14:07.023Z,54.22
2018-10-05T11:17:12.647Z,54.04
2018-10-05T11:20:18.020Z,52.86
2018-10-05T11:23:23.560Z,51.50
2018-10-05T11:26:29.157Z,51.44
2018-10-05T11:29:34.601Z,51.28
2018-10-05T11:32:40.195Z,50.52
2018-10-05T11:35:45.619Z,50.79
2018-10-05T11:38:51.048Z,49.74
2018-10-05T11:41:56.500Z,46.97
2018-10-05T11:45:01.921Z,45.49
2018-10-05T11:48:07.656Z,41.26
2018-10-05T11:51:13.072Z,40.35
2018-10-05T11:54:18.523Z,38.53
2018-10-05T11:57:23.980Z,36.86
2018-10-05T12:00:29.382Z,35.82
2018-10-05T12:03:35.492Z,33.72
2018-10-05T12:06:41.451Z,32.45
2018-10-05T12:09:47.166Z,30.40
2018-10-05T12:12:52.633Z,32.49
2018-10-05T12:15:58.047Z,30.04
2018-10-05T12:19:03.458Z,30.25
2018-10-05T12:22:08.887Z,29.75
2018-10-05T12:25:14.292Z,30.17
2018-10-05T12:28:19.706Z,31.15
2018-10-05T12:31:25.187Z,30.00
2018-10-05T12:34:30.634Z,30.77
2018-10-05T12:37:36.179Z,29.81
2018-10-05T12:40:41.608Z,29.82
2018-10-05T12:43:47.110Z,28.31
2018-10-05T12:46:52.543Z,30.00
2018-10-05T12:49:58.011Z,28.90
2018-10-05T12:53:03.412Z,28.76
2018-10-05T12:56:08.821Z,26.75
2018-10-05T12:59:14.860Z,26.84
2018-10-05T13:02:20.291Z,27.21
2018-10-05T13:05:25.704Z,28.69
2018-10-05T13:08:31.147Z,26.64
2018-10-05T13:11:37.099Z,26.63
2018-10-05T13:14:42.524Z,26.08
2018-10-05T13:17:47.982Z,28.52
2018-10-05T13:20:53.391Z,27.53
2018-10-05T13:23:59.064Z,27.86
2018-10-05T13:27:04.504Z,29.11
2018-10-05T13:30:10.514Z,29.65
2018-10-05T13:33:15.984Z,29.07
2018-10-05T13:36:21.624Z,30.22
2018-10-05T13:39:27.342Z,31.50
2018-10-05T13:42:32.756Z,31.69
2018-10-05T13:45:38.183Z,32.03
2018-10-05T13:48:43.645Z,33.76
2018-10-05T13:51:49.366Z,35.16
2018-10-05T13:54:54.834Z,35.89
2018-10-05T13:58:00.267Z,37.17
2018-10-05T14:01:05.658Z,37.97
2018-10-05T14:04:11.058Z,36.81
2018-10-05T14:07:16.488Z,38.63
2018-10-05T14:10:21.953Z,39.44
2018-10-05T14:13:27.534Z,40.67
2018-10-05T14:16:32.917Z,40.53
2018-10-05T14:19:38.368Z,39.60
2018-10-05T14:22:43.751Z,39.50
2018-10-05T14:25:49.138Z,40.58
2018-10-05T14:28:54.651Z,41.41
2018-10-05T14:32:00.394Z,42.10
2018-10-05T14:35:06.238Z,41.58
2018-10-05T14:38:11.793Z,41.79
2018-10-05T14:41:17.183Z,41.47
2018-10-05T14:44:22.578Z,41.20
2018-10-05T14:47:39.374Z,42.42
2018-10-05T14:50:44.746Z,41.94
2018-10-05T14:53:50.129Z,41.64
2018-10-05T14:56:55.764Z,42.35
2018-10-05T15:00:01.345Z,43.00
2018-10-05T15:03:06.786Z,42.58
2018-10-05T15:06:12.169Z,43.04
2018-10-05T15:09:17.555Z,43.16
2018-10-05T15:12:22.943Z,43.18
2018-10-05T15:15:28.355Z,44.51
2018-10-05T15:18:33.749Z,44.14
2018-10-05T15:21:39.217Z,44.69
2018-10-05T15:24:44.776Z,45.13
2018-10-05T15:27:50.339Z,44.94
2018-10-05T15:30:55.722Z,45.19
2018-10-05T15:34:01.121Z,45.07
2018-10-05T15:37:06.671Z,45.08
2018-10-05T15:40:12.099Z,46.04
2018-10-05T15:43:17.490Z,46.57
2018-10-05T15:47:12.737Z,46.66
2018-10-05T15:50:18.642Z,47.70
2018-10-05T15:53:24.036Z,47.24
2018-10-05T15:56:29.540Z,46.97
2018-10-05T15:59:35.636Z,47.71
2018-10-05T16:02:40.999Z,48.12
2018-10-05T16:05:46.506Z,48.15
2018-10-05T16:08:52.064Z,49.52
2018-10-05T16:11:58.216Z,50.64
2018-10-05T16:15:03.858Z,51.28
2018-10-05T16:18:09.273Z,50.53
2018-10-05T16:21:15.957Z,51.53
2018-10-05T16:24:53.135Z,51.38
2018-10-05T16:27:58.730Z,50.94
2018-10-05T16:31:04.195Z,52.54
2018-10-05T16:34:09.774Z,52.83
2018-10-05T16:37:15.217Z,52.13
2018-10-05T16:40:20.978Z,52.30
2018-10-05T16:43:26.467Z,53.70
2018-10-05T16:46:31.938Z,54.73
2018-10-05T16:49:37.315Z,54.89
2018-10-05T16:52:42.700Z,55.93
2018-10-05T16:55:48.096Z,56.25
2018-10-05T16:58:53.453Z,56.56
2018-10-05T17:01:58.883Z,57.04
2018-10-05T17:05:04.410Z,57.74
2018-10-05T17:08:09.834Z,58.03
2018-10-05T17:11:15.235Z,59.25
2018-10-05T17:14:20.599Z,59.81
2018-10-05T17:17:25.998Z,59.73
2018-10-05T17:20:32.011Z,60.00
2018-10-05T17:23:37.422Z,60.48
2018-10-05T17:26:42.994Z,60.76
2018-10-05T17:29:48.363Z,61.97
2018-10-05T17:32:53.762Z,62.16
2018-10-05T17:35:59.174Z,61.83
2018-10-05T17:39:06.901Z,62.46
2018-10-05T17:42:12.295Z,62.75
2018-10-05T17:45:18.409Z,61.46
2018-10-05T17:48:23.787Z,62.52
2018-10-05T17:51:29.180Z,61.98
2018-10-05T17:54:34.607Z,62.83
2018-10-05T17:57:40.001Z,62.83
2018-10-05T18:00:45.407Z,63.79
2018-10-05T18:03:50.778Z,63.90
2018-10-05T18:06:56.159Z,63.91
2018-10-05T18:10:01.518Z,63.85
2018-10-05T18:13:07.267Z,62.88
2018-10-05T18:16:12.711Z,62.64
2018-10-05T18:19:18.146Z,63.93
2018-10-05T18:22:23.687Z,64.77
2018-10-05T18:25:29.095Z,65.07
2018-10-05T18:28:34.622Z,65.07
2018-10-05T18:31:40.009Z,65.27
2018-10-05T18:34:45.415Z,65.63
2018-10-05T18:37:50.807Z,67.02
2018-10-05T18:40:56.187Z,67.06
2018-10-05T18:44:01.639Z,66.85
2018-10-05T18:47:08.067Z,66.80
2018-10-05T18:50:13.434Z,67.26
2018-10-05T18:53:18.822Z,66.74
2018-10-05T18:56:41.166Z,66.93
2018-10-05T18:59:46.570Z,66.51
2018-10-05T19:02:51.974Z,66.64
2018-10-05T19:05:57.346Z,66.28
2018-10-05T19:09:06.377Z,66.37
2018-10-05T19:12:11.804Z,67.57
2018-10-05T19:15:17.315Z,68.07
2018-10-05T19:18:22.758Z,69.19
2018-10-05T19:21:28.134Z,69.37
2018-10-05T19:24:33.530Z,68.92
2018-10-05T19:27:39.031Z,68.87
2018-10-05T19:30:44.410Z,68.44
2018-10-05T19:33:49.975Z,69.18
2018-10-05T19:36:57.514Z,70.02
2018-10-05T19:40:02.907Z,70.35
2018-10-05T19:43:08.323Z,71.50
2018-10-05T19:46:14.042Z,71.08
2018-10-05T19:49:19.420Z,71.46
2018-10-05T19:52:24.871Z,70.97
2018-10-05T19:55:30.258Z,71.42
2018-10-05T19:58:37.823Z,70.91
2018-10-05T20:01:43.565Z,71.70
2018-10-05T20:04:49.199Z,71.69
2018-10-05T20:07:54.574Z,72.01
2018-10-05T20:10:59.991Z,71.81
2018-10-05T20:14:05.510Z,72.31
2018-10-05T20:17:10.910Z,72.41
2018-10-05T20:20:16.290Z,71.45
2018-10-05T20:23:21.685Z,71.66
2018-10-05T20:26:27.407Z,71.46
2018-10-05T20:29:32.794Z,71.19
2018-10-05T20:32:38.193Z,71.54
2018-10-05T20:35:43.826Z,71.43
2018-10-05T20:38:49.232Z,72.06
2018-10-05T20:41:54.802Z,72.17
2018-10-05T20:45:00.211Z,72.89
2018-10-05T20:48:05.565Z,72.27
2018-10-05T20:51:10.962Z,72.31
2018-10-05T20:54:16.360Z,72.74
2018-10-05T20:57:21.735Z,73.11
2018-10-05T21:00:27.282Z,72.97
2018-10-05T21:03:32.659Z,73.54
2018-10-05T21:06:38.093Z,73.60
2018-10-05T21:09:43.666Z,73.91
2018-10-05T21:12:49.233Z,73.85
2018-10-05T21:15:54.647Z,74.42
2018-10-05T21:19:00.068Z,75.12
2018-10-05T21:22:05.429Z,75.48
2018-10-05T21:25:10.826Z,75.11
2018-10-05T21:28:16.186Z,75.36
2018-10-05T21:31:21.631Z,75.71
2018-10-05T21:34:27.081Z,75.83
2018-10-05T21:37:32.602Z,75.86
2018-10-05T21:40:38.006Z,75.40
2018-10-05T21:43:43.898Z,75.95
2018-10-05T21:46:49.275Z,75.74
2018-10-05T21:49:54.666Z,75.43
2018-10-05T21:53:00.047Z,75.71
2018-10-05T21:56:05.433Z,76.25
2018-10-05T21:59:10.787Z,76.57
2018-10-05T22:02:16.177Z,76.16
2018-10-05T22:05:21.579Z,75.88
2018-10-05T22:08:27.479Z,76.94
2018-10-05T22:11:32.910Z,77.23
2018-10-05T22:14:38.562Z,77.24
2018-10-05T22:17:44.000Z,76.37
2018-10-05T22:20:49.386Z,76.50
2018-10-05T22:23:54.774Z,76.05
2018-10-05T22:27:00.704Z,76.23
2018-10-05T22:30:07.525Z,76.42
2018-10-05T22:33:13.537Z,77.09
2018-10-05T22:36:18.918Z,77.60
2018-10-05T22:39:24.323Z,78.67
2018-10-05T22:42:29.714Z,77.88
2018-10-05T22:45:35.130Z,78.25
2018-10-05T22:48:40.509Z,77.04
2018-10-05T22:51:45.888Z,77.50
2018-10-05T22:54:51.262Z,76.43
2018-10-05T22:57:56.687Z,77.15
2018-10-05T23:01:02.046Z,77.03
2018-10-05T23:04:07.442Z,77.06
2018-10-05T23:07:13.297Z,77.67
2018-10-05T23:10:18.659Z,78.12
2018-10-05T23:13:24.056Z,78.30
2018-10-05T23:16:29.425Z,77.50
2018-10-05T23:19:34.814Z,76.96
2018-10-05T23:22:40.307Z,77.56
2018-10-05T23:25:46.030Z,77.53
2018-10-05T23:28:51.543Z,77.57
2018-10-05T23:31:57.319Z,77.89
2018-10-05T23:35:02.724Z,77.82
2018-10-05T23:38:08.338Z,77.64
2018-10-05T23:41:13.699Z,77.62
2018-10-05T23:44:19.090Z,77.72
2018-10-05T23:47:24.485Z,77.63
2018-10-05T23:50:29.854Z,78.02
2018-10-05T23:53:35.238Z,78.25
2018-10-05T23:56:40.598Z,78.17
2018-10-05T23:59:45.985Z,77.91
